createdAt,value
2019-04-04T00:04:00.064Z,96.47
2019-04-04T00:06:40.804Z,96.47
2019-04-04T00:09:21.680Z,95.81
2019-04-04T00:11:51.135Z,95.59
2019-04-04T00:14:20.500Z,95.38
2019-04-04T00:16:50.500Z,95.07
2019-04-04T00:19:21.746Z,95.09
2019-04-04T00:21:51.662Z,95.17
2019-04-04T00:24:21.335Z,95.35
2019-04-04T00:26:50.680Z,95.51
2019-04-04T00:29:20.323Z,95.52
2019-04-04T00:31:50.293Z,95.52
2019-04-04T00:37:18.732Z,95.62
2019-04-04T00:39:48.397Z,95.72
2019-04-04T00:42:19.370Z,95.86
2019-04-04T00:44:48.736Z,95.78
2019-04-04T00:47:18.349Z,95.60
2019-04-04T00:49:47.988Z,95.38
2019-04-04T00:52:30.196Z,95.19
2019-04-04T00:54:59.570Z,95.19
2019-04-04T00:57:30.094Z,94.95
2019-04-04T00:59:59.865Z,94.91
2019-04-04T01:02:48.548Z,94.86
2019-04-04T01:05:18.497Z,94.95
2019-04-04T01:07:48.475Z,95.19
2019-04-04T01:10:19.065Z,95.42
2019-04-04T01:13:08.297Z,95.63
2019-04-04T01:15:37.654Z,95.60
2019-04-04T01:18:07.315Z,95.43
2019-04-04T01:20:36.662Z,95.37
2019-04-04T01:23:06.312Z,95.27
2019-04-04T01:25:35.661Z,95.28
2019-04-04T01:28:08.244Z,95.42
2019-04-04T01:31:02.798Z,95.44
2019-04-04T01:33:32.398Z,95.43
2019-04-04T01:36:24.916Z,95.32
2019-04-04T01:38:58.073Z,95.32
2019-04-04T01:41:37.949Z,95.53
2019-04-04T01:44:11.035Z,95.71
2019-04-04T01:46:58.002Z,95.75
2019-04-04T01:49:27.410Z,95.93
2019-04-04T01:51:57.732Z,96.11
2019-04-04T01:54:33.523Z,96.09
2019-04-04T01:57:02.875Z,95.99
2019-04-04T01:59:32.582Z,96.07
2019-04-04T02:02:02.706Z,96.29
2019-04-04T02:04:51.459Z,96.46
2019-04-04T02:07:20.825Z,96.44
2019-04-04T02:13:21.894Z,96.24
2019-04-04T02:18:54.393Z,96.26
2019-04-04T02:21:49.620Z,96.26
2019-04-04T02:24:19.044Z,96.49
2019-04-04T02:26:48.846Z,96.78
2019-04-04T02:29:18.501Z,96.85
2019-04-04T02:32:07.112Z,96.84
2019-04-04T02:34:38.532Z,96.93
2019-04-04T02:37:20.835Z,96.95
2019-04-04T02:39:55.542Z,96.88
2019-04-04T02:45:13.569Z,96.78
2019-04-04T02:47:42.917Z,96.65
2019-04-04T02:50:52.682Z,96.56
2019-04-04T02:53:22.028Z,96.75
2019-04-04T02:55:51.743Z,96.89
2019-04-04T02:58:21.376Z,97.08
2019-04-04T03:00:50.861Z,97.17
2019-04-04T03:03:20.201Z,97.10
2019-04-04T03:05:51.950Z,96.95
2019-04-04T03:08:40.567Z,96.82
2019-04-04T03:14:05.168Z,96.66
2019-04-04T03:16:34.917Z,96.51
2019-04-04T03:19:04.887Z,96.50
2019-04-04T03:21:55.936Z,96.46
2019-04-04T03:24:45.141Z,96.45
2019-04-04T03:27:25.732Z,96.60
2019-04-04T03:30:01.077Z,96.68
2019-04-04T03:32:31.049Z,96.82
2019-04-04T03:35:00.846Z,97.03
2019-04-04T03:37:30.179Z,97.38
2019-04-04T03:43:16.103Z,97.68
2019-04-04T03:46:05.079Z,97.87
2019-04-04T03:48:49.898Z,97.84
2019-04-04T03:51:17.871Z,98.00
2019-04-04T03:56:25.695Z,98.08
2019-04-04T03:59:35.071Z,98.01
2019-04-04T04:02:04.746Z,97.96
2019-04-04T04:04:34.096Z,98.00
2019-04-04T04:07:03.830Z,98.00
2019-04-04T04:09:33.209Z,97.90
2019-04-04T04:12:02.819Z,97.89
2019-04-04T04:14:33.940Z,97.99
2019-04-04T04:17:03.338Z,97.98
2019-04-04T04:19:32.829Z,97.80
2019-04-04T04:22:21.542Z,97.87
2019-04-04T04:24:50.912Z,97.87
2019-04-04T04:27:20.266Z,97.66
2019-04-04T04:29:51.535Z,97.62
2019-04-04T04:32:22.655Z,97.49
2019-04-04T04:35:11.406Z,97.46
2019-04-04T04:37:41.041Z,97.42
2019-04-04T04:40:50.725Z,97.43
2019-04-04T04:43:20.076Z,97.46
2019-04-04T04:45:51.055Z,97.45
2019-04-04T04:51:43.237Z,97.49
2019-04-04T04:54:22.843Z,97.49
2019-04-04T04:56:57.576Z,97.44
2019-04-04T04:59:26.994Z,97.40
2019-04-04T05:01:56.448Z,97.35
2019-04-04T05:04:27.972Z,97.16
2019-04-04T05:07:07.433Z,96.99
2019-04-04T05:09:44.461Z,97.05
2019-04-04T05:12:22.984Z,97.09
2019-04-04T05:14:52.674Z,97.22
2019-04-04T05:17:22.138Z,97.31
2019-04-04T05:19:52.511Z,97.45
2019-04-04T05:22:22.048Z,97.44
2019-04-04T05:25:06.826Z,97.49
2019-04-04T05:27:31.979Z,97.46
2019-04-04T05:30:01.329Z,97.40
2019-04-04T05:32:53.128Z,97.40
2019-04-04T05:35:40.256Z,97.52
2019-04-04T05:38:12.236Z,97.57
2019-04-04T05:41:00.095Z,97.52
2019-04-04T05:43:29.733Z,97.55
2019-04-04T05:45:59.276Z,97.63
2019-04-04T05:48:29.616Z,97.62
2019-04-04T05:51:19.067Z,97.62
2019-04-04T05:53:48.431Z,97.52
2019-04-04T05:56:17.996Z,97.27
2019-04-04T05:58:47.537Z,97.18
2019-04-04T06:01:36.456Z,97.20
2019-04-04T06:04:06.144Z,97.30
2019-04-04T06:06:35.472Z,97.46
2019-04-04T06:09:46.870Z,97.33
2019-04-04T06:12:22.984Z,97.40
2019-04-04T06:15:43.104Z,97.95
2019-04-04T06:18:12.469Z,98.18
2019-04-04T06:20:42.127Z,98.54
2019-04-04T06:23:11.502Z,98.65
2019-04-04T06:25:42.469Z,98.80
2019-04-04T06:28:12.690Z,98.98
2019-04-04T06:31:02.348Z,98.91
2019-04-04T06:33:33.071Z,99.04
2019-04-04T06:36:22.150Z,99.16
2019-04-04T06:38:52.226Z,99.24
2019-04-04T06:41:41.670Z,99.33
2019-04-04T06:44:13.027Z,99.47
2019-04-04T06:47:02.055Z,99.41
2019-04-04T06:49:38.200Z,99.46
2019-04-04T06:52:19.369Z,99.43
2019-04-04T06:54:48.665Z,99.33
2019-04-04T06:57:18.267Z,99.49
2019-04-04T06:59:47.622Z,99.47
2019-04-04T07:02:17.254Z,99.33
2019-04-04T07:04:47.593Z,99.28
2019-04-04T07:07:17.284Z,99.38
2019-04-04T07:09:50.354Z,99.49
2019-04-04T07:13:20.953Z,99.47
2019-04-04T07:15:46.937Z,99.50
2019-04-04T07:18:20.698Z,99.57
2019-04-04T07:20:50.242Z,99.68
2019-04-04T07:23:19.934Z,99.61
2019-04-04T07:25:49.829Z,99.43
2019-04-04T07:28:19.728Z,99.09
2019-04-04T07:30:56.522Z,98.95
2019-04-04T07:33:26.193Z,98.97
2019-04-04T07:35:55.658Z,98.75
2019-04-04T07:41:44.676Z,99.01
2019-04-04T07:44:17.269Z,99.00
2019-04-04T07:46:47.677Z,98.83
2019-04-04T07:49:18.666Z,98.60
2019-04-04T07:51:48.314Z,98.64
2019-04-04T07:54:17.683Z,98.51
2019-04-04T07:56:48.848Z,98.44
2019-04-04T07:59:18.377Z,98.47
2019-04-04T08:04:36.435Z,98.10
2019-04-04T08:07:05.790Z,97.97
2019-04-04T08:09:35.738Z,97.90
2019-04-04T08:12:05.649Z,97.92
2019-04-04T08:14:35.314Z,98.00
2019-04-04T08:17:04.767Z,98.38
2019-04-04T08:19:34.153Z,98.53
2019-04-04T08:22:03.754Z,98.62
2019-04-04T08:24:33.076Z,98.62
2019-04-04T08:27:02.725Z,98.40
2019-04-04T08:32:26.901Z,98.47
2019-04-04T08:34:56.575Z,98.36
2019-04-04T08:37:26.021Z,98.38
2019-04-04T08:39:55.691Z,98.46
2019-04-04T08:42:25.293Z,98.33
2019-04-04T08:44:54.766Z,98.33
2019-04-04T08:47:24.429Z,97.98
2019-04-04T08:49:53.805Z,97.90
2019-04-04T08:52:23.167Z,97.73
2019-04-04T08:54:52.830Z,97.68
2019-04-04T08:57:22.482Z,97.57
2019-04-04T08:59:51.852Z,97.66
2019-04-04T09:02:21.578Z,97.40
2019-04-04T09:04:51.239Z,97.15
2019-04-04T09:07:20.688Z,96.51
2019-04-04T09:09:50.133Z,96.41
2019-04-04T09:12:19.579Z,96.45
2019-04-04T09:17:44.790Z,96.47
2019-04-04T09:20:14.543Z,96.55
2019-04-04T09:22:43.893Z,96.14
2019-04-04T09:25:13.322Z,95.97
2019-04-04T09:28:02.028Z,94.83
2019-04-04T09:30:43.502Z,94.96
2019-04-04T09:33:12.863Z,94.96
2019-04-04T09:35:42.227Z,95.07
2019-04-04T09:38:25.552Z,94.83
2019-04-04T09:40:54.928Z,94.83
2019-04-04T09:43:24.606Z,93.55
2019-04-04T09:46:14.905Z,93.26
2019-04-04T09:48:44.267Z,93.12
2019-04-04T09:51:33.002Z,93.30
2019-04-04T09:54:02.359Z,93.55
2019-04-04T09:56:44.184Z,93.59
2019-04-04T09:59:13.825Z,93.77
2019-04-04T10:01:43.191Z,93.77
2019-04-04T10:04:13.958Z,93.99
2019-04-04T10:06:43.634Z,93.99
2019-04-04T10:09:33.704Z,94.05
2019-04-04T10:12:03.358Z,94.47
2019-04-04T10:14:32.839Z,94.49
2019-04-04T10:17:02.216Z,94.49
2019-04-04T10:19:31.770Z,94.81
2019-04-04T10:22:01.133Z,94.78
2019-04-04T10:24:42.776Z,94.66
2019-04-04T10:27:12.120Z,94.66
2019-04-04T10:29:41.817Z,94.69
2019-04-04T10:32:11.486Z,94.58
2019-04-04T10:34:41.282Z,94.22
2019-04-04T10:37:31.287Z,93.08
2019-04-04T10:40:00.946Z,93.02
2019-04-04T10:42:30.353Z,93.02
2019-04-04T10:45:19.323Z,92.29
2019-04-04T10:48:07.864Z,92.38
2019-04-04T10:50:37.238Z,92.38
2019-04-04T10:53:06.842Z,91.95
2019-04-04T10:55:55.581Z,91.53
2019-04-04T10:58:24.927Z,91.18
2019-04-04T11:00:54.317Z,90.75
2019-04-04T11:03:43.579Z,91.13
2019-04-04T11:06:13.010Z,90.95
2019-04-04T11:08:42.383Z,90.95
2019-04-04T11:11:11.796Z,91.07
2019-04-04T11:13:42.879Z,91.07
2019-04-04T11:16:30.306Z,90.20
2019-04-04T11:18:58.248Z,90.20
2019-04-04T11:21:27.906Z,89.04
2019-04-04T11:23:57.594Z,88.51
2019-04-04T11:26:27.036Z,88.22
2019-04-04T11:28:56.399Z,87.34
2019-04-04T11:31:25.877Z,86.93
2019-04-04T11:33:55.532Z,86.33
2019-04-04T11:36:37.867Z,85.58
2019-04-04T11:42:27.398Z,85.67
2019-04-04T11:44:57.049Z,85.37
2019-04-04T11:50:22.040Z,84.85
2019-04-04T11:52:51.398Z,85.43
2019-04-04T11:55:21.309Z,85.80
2019-04-04T11:57:50.966Z,86.03
2019-04-04T12:03:15.471Z,86.36
2019-04-04T12:05:45.069Z,86.21
2019-04-04T12:08:14.422Z,86.21
2019-04-04T12:10:44.080Z,86.32
2019-04-04T12:13:13.450Z,86.34
2019-04-04T12:18:45.435Z,86.95
2019-04-04T12:21:15.460Z,87.06
2019-04-04T12:23:45.000Z,87.07
2019-04-04T12:26:14.399Z,87.07
2019-04-04T12:28:45.368Z,87.15
2019-04-04T12:31:15.022Z,87.31
2019-04-04T12:33:44.379Z,87.76
2019-04-04T12:36:24.049Z,88.04
2019-04-04T12:38:50.596Z,88.19
2019-04-04T12:42:00.203Z,88.17
2019-04-04T12:44:49.131Z,88.37
2019-04-04T12:47:18.827Z,88.94
2019-04-04T12:49:50.405Z,89.14
2019-04-04T12:52:19.774Z,89.15
2019-04-04T12:54:49.377Z,89.53
2019-04-04T12:57:19.046Z,89.39
2019-04-04T13:00:01.910Z,89.52
2019-04-04T13:02:31.274Z,89.23
2019-04-04T13:05:01.206Z,89.18
2019-04-04T13:07:30.574Z,89.32
2019-04-04T13:10:10.897Z,89.49
2019-04-04T13:15:38.316Z,89.39
2019-04-04T13:18:09.307Z,89.39
2019-04-04T13:20:38.648Z,89.71
2019-04-04T13:23:08.278Z,89.79
2019-04-04T13:25:37.943Z,89.80
2019-04-04T13:28:07.656Z,90.02
2019-04-04T13:30:49.521Z,90.45
2019-04-04T13:33:31.472Z,89.89
2019-04-04T13:36:01.419Z,89.89
2019-04-04T13:38:30.797Z,89.21
2019-04-04T13:41:00.490Z,89.62
2019-04-04T13:43:29.855Z,89.83
2019-04-04T13:45:59.507Z,89.84
2019-04-04T13:48:29.175Z,90.06
2019-04-04T13:51:00.902Z,89.86
2019-04-04T13:53:30.485Z,89.62
2019-04-04T13:56:00.198Z,89.93
2019-04-04T13:58:29.895Z,90.19
2019-04-04T14:00:59.550Z,90.18
2019-04-04T14:03:29.216Z,90.29
2019-04-04T14:05:58.565Z,90.79
2019-04-04T14:08:27.935Z,91.02
2019-04-04T14:10:58.611Z,91.05
2019-04-04T14:13:28.334Z,91.14
2019-04-04T14:15:57.776Z,91.07
2019-04-04T14:18:38.988Z,91.85
2019-04-04T14:21:17.557Z,91.85
2019-04-04T14:26:46.400Z,92.29
2019-04-04T14:29:27.811Z,92.29
2019-04-04T14:31:58.903Z,92.10
2019-04-04T14:34:28.351Z,91.81
2019-04-04T14:36:57.830Z,91.81
2019-04-04T14:39:27.361Z,92.57
2019-04-04T14:41:56.749Z,93.16
2019-04-04T14:44:28.028Z,93.76
2019-04-04T14:47:07.349Z,94.18
2019-04-04T14:49:36.711Z,94.68
2019-04-04T14:52:06.403Z,94.88
2019-04-04T14:54:46.706Z,94.97
2019-04-04T14:57:35.739Z,95.01
2019-04-04T15:03:07.689Z,95.07
2019-04-04T15:05:37.050Z,95.08
2019-04-04T15:08:06.966Z,94.89
2019-04-04T15:10:38.880Z,94.75
2019-04-04T15:13:12.765Z,94.79
2019-04-04T15:19:16.536Z,94.50
2019-04-04T15:21:45.898Z,94.50
2019-04-04T15:24:15.573Z,94.17
2019-04-04T15:26:45.183Z,93.61
2019-04-04T15:29:14.556Z,93.53
2019-04-04T15:31:43.913Z,93.37
2019-04-04T15:34:13.522Z,93.29
2019-04-04T15:36:42.878Z,93.52
2019-04-04T15:39:12.555Z,93.69
2019-04-04T15:41:41.909Z,93.99
2019-04-04T15:44:11.576Z,94.08
2019-04-04T15:46:40.937Z,94.30
2019-04-04T15:49:10.620Z,94.40
2019-04-04T15:51:39.976Z,94.39
2019-04-04T15:54:09.934Z,94.56
2019-04-04T15:56:39.582Z,94.30
2019-04-04T15:59:08.953Z,94.20
2019-04-04T16:01:38.638Z,94.44
2019-04-04T16:04:08.008Z,94.59
2019-04-04T16:06:37.674Z,94.61
2019-04-04T16:09:47.076Z,94.70
2019-04-04T16:12:36.033Z,94.82
2019-04-04T16:15:45.770Z,94.82
2019-04-04T16:18:15.120Z,95.86
2019-04-04T16:20:44.751Z,96.44
2019-04-04T16:23:14.097Z,96.81
2019-04-04T16:25:43.720Z,97.12
2019-04-04T16:28:13.083Z,97.12
2019-04-04T16:30:42.745Z,96.91
2019-04-04T16:33:12.103Z,96.85
2019-04-04T16:35:54.334Z,97.02
2019-04-04T16:38:23.749Z,97.02
2019-04-04T16:40:53.152Z,96.38
2019-04-04T16:43:35.664Z,96.19
2019-04-04T16:46:05.068Z,96.19
2019-04-04T16:48:54.127Z,95.90
2019-04-04T16:51:23.827Z,95.90
2019-04-04T16:53:53.202Z,96.17
2019-04-04T16:57:02.753Z,96.12
2019-04-04T16:59:32.127Z,96.22
2019-04-04T17:02:02.049Z,96.25
2019-04-04T17:04:31.762Z,96.15
2019-04-04T17:07:01.126Z,96.08
2019-04-04T17:09:30.780Z,95.81
2019-04-04T17:12:00.446Z,95.96
2019-04-04T17:14:48.991Z,96.00
2019-04-04T17:17:18.593Z,96.11
2019-04-04T17:19:49.147Z,95.99
2019-04-04T17:25:33.788Z,95.97
2019-04-04T17:28:03.295Z,95.79
2019-04-04T17:30:33.565Z,95.84
2019-04-04T17:33:23.293Z,95.50
2019-04-04T17:35:53.059Z,95.67
2019-04-04T17:38:22.700Z,95.73
2019-04-04T17:40:52.376Z,95.83
2019-04-04T17:43:22.083Z,95.83
2019-04-04T17:45:51.650Z,96.05
2019-04-04T17:48:21.019Z,96.11
2019-04-04T17:50:50.683Z,96.15
2019-04-04T17:53:20.283Z,96.04
2019-04-04T17:55:51.948Z,96.03
2019-04-04T17:58:41.437Z,95.96
2019-04-04T18:07:35.396Z,96.06
2019-04-04T18:13:07.032Z,96.74
2019-04-04T18:18:17.339Z,97.18
2019-04-04T18:20:46.970Z,97.03
2019-04-04T18:23:16.324Z,96.85
2019-04-04T18:25:47.405Z,96.68
2019-04-04T18:28:38.178Z,96.46
2019-04-04T18:31:32.359Z,96.12
2019-04-04T18:34:02.305Z,95.80
2019-04-04T18:36:33.660Z,95.94
2019-04-04T18:39:23.440Z,96.08
2019-04-04T18:41:53.101Z,96.15
2019-04-04T18:44:43.644Z,96.15
2019-04-04T18:47:34.080Z,96.12
2019-04-04T18:50:44.157Z,95.79
2019-04-04T18:53:13.813Z,95.73
2019-04-04T18:55:43.220Z,95.78
2019-04-04T18:58:12.572Z,95.88
2019-04-04T19:03:37.910Z,96.51
2019-04-04T19:06:07.281Z,96.48
2019-04-04T19:08:36.641Z,96.58
2019-04-04T19:11:06.439Z,96.61
2019-04-04T19:13:44.049Z,96.63
2019-04-04T19:16:13.471Z,96.71
2019-04-04T19:21:57.025Z,96.77
2019-04-04T19:24:26.372Z,96.87
2019-04-04T19:27:07.936Z,96.63
2019-04-04T19:29:49.041Z,96.63
2019-04-04T19:32:18.413Z,96.59
2019-04-04T19:34:49.407Z,96.55
2019-04-04T19:37:19.092Z,96.55
2019-04-04T19:39:57.305Z,96.61
2019-04-04T19:42:26.631Z,96.61
2019-04-04T19:44:56.282Z,97.02
2019-04-04T19:47:25.653Z,97.28
2019-04-04T19:49:55.370Z,97.37
2019-04-04T19:52:25.031Z,97.42
2019-04-04T19:54:55.024Z,97.28
2019-04-04T19:57:24.417Z,97.12
2019-04-04T19:59:54.053Z,97.07
2019-04-04T20:02:23.421Z,96.94
2019-04-04T20:04:53.096Z,96.95
2019-04-04T20:07:22.468Z,96.81
2019-04-04T20:09:51.815Z,96.72
2019-04-04T20:12:21.421Z,96.63
2019-04-04T20:14:51.091Z,96.76
2019-04-04T20:17:20.481Z,96.91
2019-04-04T20:19:50.133Z,96.71
2019-04-04T20:22:19.505Z,96.66
2019-04-04T20:24:50.773Z,96.90
2019-04-04T20:27:20.351Z,97.05
2019-04-04T20:29:49.706Z,97.33
2019-04-04T20:32:32.092Z,97.90
2019-04-04T20:35:01.739Z,97.90
2019-04-04T20:40:25.711Z,98.07
2019-04-04T20:43:14.746Z,98.33
2019-04-04T20:45:44.290Z,98.65
2019-04-04T20:48:33.030Z,98.85
2019-04-04T20:51:02.493Z,98.87
2019-04-04T20:53:32.168Z,98.76
2019-04-04T20:56:01.830Z,98.67
2019-04-04T20:58:31.740Z,98.51
2019-04-04T21:01:01.373Z,98.35
2019-04-04T21:03:30.876Z,98.22
2019-04-04T21:12:07.051Z,98.41
2019-04-04T21:14:49.349Z,98.67
2019-04-04T21:17:19.632Z,98.67
2019-04-04T21:20:09.089Z,98.51
2019-04-04T21:22:38.513Z,98.59
2019-04-04T21:25:08.282Z,98.95
2019-04-04T21:27:37.650Z,99.33
2019-04-04T21:33:41.440Z,99.44
2019-04-04T21:39:12.665Z,99.12
2019-04-04T21:41:42.016Z,99.21
2019-04-04T21:44:23.584Z,99.76
2019-04-04T21:46:52.952Z,99.76
2019-04-04T21:49:22.352Z,100.00
2019-04-04T21:51:51.735Z,100.00
2019-04-04T21:57:30.495Z,100.00
2019-04-04T22:00:19.569Z,100.00
2019-04-04T22:02:50.675Z,100.00
2019-04-04T22:05:19.994Z,100.00
2019-04-04T22:07:49.852Z,100.00
2019-04-04T22:10:32.088Z,100.00
2019-04-04T22:13:13.829Z,100.00
2019-04-04T22:16:23.480Z,100.00
2019-04-04T22:18:53.161Z,100.00
2019-04-04T22:21:22.824Z,100.00
2019-04-04T22:24:11.852Z,100.00
2019-04-04T22:26:41.499Z,100.00
2019-04-04T22:29:11.201Z,100.00
2019-04-04T22:31:40.921Z,100.00
2019-04-04T22:34:10.450Z,100.00
2019-04-04T22:39:28.492Z,100.00
2019-04-04T22:41:57.854Z,100.00
2019-04-04T22:44:34.610Z,100.00
2019-04-04T22:47:17.710Z,100.00
2019-04-04T22:49:47.399Z,100.00
2019-04-04T22:52:16.981Z,100.00
2019-04-04T22:54:47.414Z,100.00
2019-04-04T22:57:16.786Z,100.00
2019-04-04T22:59:46.168Z,100.00
2019-04-04T23:02:17.438Z,100.00
2019-04-04T23:04:46.819Z,100.00
2019-04-04T23:10:24.821Z,100.00
2019-04-04T23:12:54.199Z,100.00
2019-04-04T23:15:24.034Z,100.00
2019-04-04T23:17:54.079Z,100.00
2019-04-04T23:23:11.967Z,100.00
2019-04-04T23:26:01.011Z,100.00
2019-04-04T23:28:43.562Z,100.00
2019-04-04T23:31:13.194Z,100.00
2019-04-04T23:34:02.489Z,100.00
2019-04-04T23:36:35.210Z,100.00
2019-04-04T23:39:14.218Z,100.00
2019-04-04T23:41:43.714Z,100.00
2019-04-04T23:44:13.104Z,100.00
2019-04-04T23:47:02.292Z,100.00
2019-04-04T23:49:31.730Z,100.00
2019-04-04T23:52:01.401Z,100.00
2019-04-04T23:54:30.854Z,100.00
2019-04-04T23:57:19.586Z,100.00
